sensor_id;sensor_type;location;lat;lon;timestamp;pressure;altitude;pressure_sealevel;temperature;humidity
74958;BME280;63741;42.624;26.276;2023-12-20T00:02:12;100160.66;;;3.90;82.23
74958;BME280;63741;42.624;26.276;2023-12-20T00:04:39;100153.19;;;3.81;83.10
74958;BME280;63741;42.624;26.276;2023-12-20T00:07:06;100155.34;;;3.92;83.23
74958;BME280;63741;42.624;26.276;2023-12-20T00:09:33;100154.38;;;3.94;82.04
74958;BME280;63741;42.624;26.276;2023-12-20T00:12:00;100151.69;;;3.75;83.53
74958;BME280;63741;42.624;26.276;2023-12-20T00:14:27;100147.75;;;3.86;84.12
74958;BME280;63741;42.624;26.276;2023-12-20T00:16:54;100144.94;;;3.90;82.62
74958;BME280;63741;42.624;26.276;2023-12-20T00:19:21;100146.44;;;3.96;83.43
74958;BME280;63741;42.624;26.276;2023-12-20T00:21:48;100153.72;;;4.10;82.50
74958;BME280;63741;42.624;26.276;2023-12-20T00:24:16;100148.69;;;4.25;81.33
74958;BME280;63741;42.624;26.276;2023-12-20T00:26:43;100138.97;;;4.27;82.83
74958;BME280;63741;42.624;26.276;2023-12-20T00:29:10;100138.22;;;4.25;81.41
74958;BME280;63741;42.624;26.276;2023-12-20T00:31:37;100145.41;;;4.20;82.53
74958;BME280;63741;42.624;26.276;2023-12-20T00:34:04;100137.97;;;4.11;82.29
74958;BME280;63741;42.624;26.276;2023-12-20T00:36:31;100137.16;;;4.29;82.02
74958;BME280;63741;42.624;26.276;2023-12-20T00:38:58;100136.22;;;4.10;81.08
74958;BME280;63741;42.624;26.276;2023-12-20T00:41:25;100140.81;;;4.05;82.90
74958;BME280;63741;42.624;26.276;2023-12-20T00:43:52;100137.75;;;3.95;83.16
74958;BME280;63741;42.624;26.276;2023-12-20T00:46:19;100139.59;;;3.93;83.01
74958;BME280;63741;42.624;26.276;2023-12-20T00:48:46;100134.66;;;4.06;83.13
74958;BME280;63741;42.624;26.276;2023-12-20T00:51:13;100133.44;;;3.94;84.23
74958;BME280;63741;42.624;26.276;2023-12-20T00:53:40;100126.22;;;3.99;83.92
74958;BME280;63741;42.624;26.276;2023-12-20T00:56:07;100133.69;;;4.09;83.59
74958;BME280;63741;42.624;26.276;2023-12-20T00:58:35;100117.72;;;4.15;83.91
74958;BME280;63741;42.624;26.276;2023-12-20T01:01:02;100124.19;;;4.26;82.98
74958;BME280;63741;42.624;26.276;2023-12-20T01:03:29;100115.56;;;4.24;81.94
74958;BME280;63741;42.624;26.276;2023-12-20T01:05:56;100114.44;;;4.10;83.07
74958;BME280;63741;42.624;26.276;2023-12-20T01:08:23;100113.59;;;4.09;83.52
74958;BME280;63741;42.624;26.276;2023-12-20T01:10:50;100105.53;;;4.14;83.46
74958;BME280;63741;42.624;26.276;2023-12-20T01:13:16;100106.53;;;3.91;84.01
74958;BME280;63741;42.624;26.276;2023-12-20T01:15:44;100104.78;;;3.71;84.50
74958;BME280;63741;42.624;26.276;2023-12-20T01:18:11;100094.50;;;3.66;84.78
74958;BME280;63741;42.624;26.276;2023-12-20T01:20:38;100086.53;;;3.90;83.96
74958;BME280;63741;42.624;26.276;2023-12-20T01:23:05;100091.97;;;3.85;83.86
74958;BME280;63741;42.624;26.276;2023-12-20T01:25:31;100087.81;;;4.00;84.17
74958;BME280;63741;42.624;26.276;2023-12-20T01:27:58;100078.06;;;4.03;83.12
74958;BME280;63741;42.624;26.276;2023-12-20T01:30:25;100080.38;;;3.91;83.27
74958;BME280;63741;42.624;26.276;2023-12-20T01:32:52;100071.19;;;4.01;83.20
74958;BME280;63741;42.624;26.276;2023-12-20T01:35:19;100065.97;;;4.01;83.13
74958;BME280;63741;42.624;26.276;2023-12-20T01:37:46;100064.09;;;3.84;82.95
74958;BME280;63741;42.624;26.276;2023-12-20T01:40:14;100065.00;;;3.83;82.95
74958;BME280;63741;42.624;26.276;2023-12-20T01:42:41;100055.84;;;3.73;83.11
74958;BME280;63741;42.624;26.276;2023-12-20T01:45:08;100046.53;;;3.66;83.85
74958;BME280;63741;42.624;26.276;2023-12-20T01:47:36;100049.88;;;3.90;82.33
74958;BME280;63741;42.624;26.276;2023-12-20T01:50:03;100050.88;;;3.67;82.97
74958;BME280;63741;42.624;26.276;2023-12-20T01:52:31;100043.66;;;3.51;84.18
74958;BME280;63741;42.624;26.276;2023-12-20T01:55:01;100036.84;;;3.47;84.82
74958;BME280;63741;42.624;26.276;2023-12-20T01:57:30;100042.81;;;3.51;84.74
74958;BME280;63741;42.624;26.276;2023-12-20T01:59:58;100036.00;;;3.47;85.30
74958;BME280;63741;42.624;26.276;2023-12-20T02:02:26;100038.91;;;3.82;84.07
74958;BME280;63741;42.624;26.276;2023-12-20T02:04:54;100040.75;;;3.79;83.80
74958;BME280;63741;42.624;26.276;2023-12-20T02:07:22;100040.34;;;3.89;83.81
74958;BME280;63741;42.624;26.276;2023-12-20T02:09:50;100030.00;;;3.86;84.59
74958;BME280;63741;42.624;26.276;2023-12-20T02:12:17;100021.75;;;3.74;83.70
74958;BME280;63741;42.624;26.276;2023-12-20T02:14:45;100019.09;;;3.76;84.44
74958;BME280;63741;42.624;26.276;2023-12-20T02:17:12;100014.59;;;3.79;84.90
74958;BME280;63741;42.624;26.276;2023-12-20T02:19:39;100020.47;;;3.64;84.58
74958;BME280;63741;42.624;26.276;2023-12-20T02:22:10;100016.59;;;3.52;85.63
74958;BME280;63741;42.624;26.276;2023-12-20T02:24:38;100011.88;;;3.61;84.34
74958;BME280;63741;42.624;26.276;2023-12-20T02:27:07;100000.53;;;3.62;83.58
74958;BME280;63741;42.624;26.276;2023-12-20T02:29:34;100000.78;;;3.76;84.78
74958;BME280;63741;42.624;26.276;2023-12-20T02:32:02;100002.88;;;3.68;85.09
74958;BME280;63741;42.624;26.276;2023-12-20T02:34:29;100000.19;;;3.69;84.25
74958;BME280;63741;42.624;26.276;2023-12-20T02:36:56;99991.81;;;3.41;86.04
74958;BME280;63741;42.624;26.276;2023-12-20T02:39:23;99989.88;;;3.46;86.94
74958;BME280;63741;42.624;26.276;2023-12-20T02:41:50;99992.09;;;3.75;84.46
74958;BME280;63741;42.624;26.276;2023-12-20T02:44:17;99988.66;;;3.73;84.82
74958;BME280;63741;42.624;26.276;2023-12-20T02:46:44;99986.44;;;3.85;84.01
74958;BME280;63741;42.624;26.276;2023-12-20T02:49:11;99992.00;;;3.57;84.47
74958;BME280;63741;42.624;26.276;2023-12-20T02:51:38;99983.59;;;3.50;86.13
74958;BME280;63741;42.624;26.276;2023-12-20T02:54:05;99976.31;;;3.57;85.42
74958;BME280;63741;42.624;26.276;2023-12-20T02:56:33;99979.13;;;3.52;85.01
74958;BME280;63741;42.624;26.276;2023-12-20T02:59:01;99976.38;;;3.55;84.79
74958;BME280;63741;42.624;26.276;2023-12-20T03:01:28;99974.94;;;3.48;85.17
74958;BME280;63741;42.624;26.276;2023-12-20T03:03:56;99976.78;;;3.46;85.44
74958;BME280;63741;42.624;26.276;2023-12-20T03:06:23;99966.41;;;3.44;84.98
74958;BME280;63741;42.624;26.276;2023-12-20T03:08:51;99973.22;;;3.48;84.86
74958;BME280;63741;42.624;26.276;2023-12-20T03:11:18;99971.94;;;3.57;84.48
74958;BME280;63741;42.624;26.276;2023-12-20T03:13:45;99970.38;;;3.53;84.40
74958;BME280;63741;42.624;26.276;2023-12-20T03:16:13;99963.41;;;3.53;84.68
74958;BME280;63741;42.624;26.276;2023-12-20T03:18:40;99967.19;;;3.26;84.96
74958;BME280;63741;42.624;26.276;2023-12-20T03:21:07;99972.28;;;3.09;85.33
74958;BME280;63741;42.624;26.276;2023-12-20T03:23:34;99968.63;;;3.13;85.38
74958;BME280;63741;42.624;26.276;2023-12-20T03:26:01;99963.97;;;3.19;84.96
74958;BME280;63741;42.624;26.276;2023-12-20T03:28:29;99960.47;;;2.98;85.25
74958;BME280;63741;42.624;26.276;2023-12-20T03:30:56;99965.47;;;3.25;84.10
74958;BME280;63741;42.624;26.276;2023-12-20T03:33:23;99960.63;;;3.16;85.43
74958;BME280;63741;42.624;26.276;2023-12-20T03:35:50;99957.25;;;3.14;84.40
74958;BME280;63741;42.624;26.276;2023-12-20T03:38:17;99951.41;;;3.07;83.70
74958;BME280;63741;42.624;26.276;2023-12-20T03:40:44;99957.94;;;2.97;84.78
74958;BME280;63741;42.624;26.276;2023-12-20T03:43:11;99951.13;;;2.72;85.20
74958;BME280;63741;42.624;26.276;2023-12-20T03:45:38;99948.44;;;2.74;85.55
74958;BME280;63741;42.624;26.276;2023-12-20T03:48:05;99948.94;;;3.04;84.77
74958;BME280;63741;42.624;26.276;2023-12-20T03:50:34;99945.34;;;3.07;85.09
74958;BME280;63741;42.624;26.276;2023-12-20T03:53:01;99945.78;;;3.16;84.78
74958;BME280;63741;42.624;26.276;2023-12-20T03:55:28;99944.72;;;3.22;84.77
74958;BME280;63741;42.624;26.276;2023-12-20T03:57:55;99943.47;;;2.88;84.95
74958;BME280;63741;42.624;26.276;2023-12-20T04:00:22;99945.13;;;2.91;85.65
74958;BME280;63741;42.624;26.276;2023-12-20T04:02:49;99941.75;;;3.09;86.34
74958;BME280;63741;42.624;26.276;2023-12-20T04:05:16;99929.09;;;2.78;86.36
74958;BME280;63741;42.624;26.276;2023-12-20T04:07:43;99934.56;;;2.72;86.86
74958;BME280;63741;42.624;26.276;2023-12-20T04:10:11;99922.44;;;2.71;87.62
74958;BME280;63741;42.624;26.276;2023-12-20T04:12:38;99924.22;;;2.91;86.43
74958;BME280;63741;42.624;26.276;2023-12-20T04:15:05;99926.72;;;3.14;85.74
74958;BME280;63741;42.624;26.276;2023-12-20T04:17:36;99915.34;;;2.95;85.62
74958;BME280;63741;42.624;26.276;2023-12-20T04:20:04;99915.94;;;3.01;85.97
74958;BME280;63741;42.624;26.276;2023-12-20T04:22:31;99916.66;;;3.05;84.78
74958;BME280;63741;42.624;26.276;2023-12-20T04:24:58;99907.78;;;3.09;84.84
74958;BME280;63741;42.624;26.276;2023-12-20T04:27:25;99915.63;;;3.09;84.69
74958;BME280;63741;42.624;26.276;2023-12-20T04:29:52;99912.41;;;3.02;85.01
74958;BME280;63741;42.624;26.276;2023-12-20T04:32:19;99912.75;;;3.15;84.32
74958;BME280;63741;42.624;26.276;2023-12-20T04:34:45;99912.00;;;3.12;83.57
74958;BME280;63741;42.624;26.276;2023-12-20T04:37:12;99917.63;;;3.02;83.68
74958;BME280;63741;42.624;26.276;2023-12-20T04:39:39;99916.66;;;3.05;83.87
74958;BME280;63741;42.624;26.276;2023-12-20T04:42:08;99912.81;;;3.14;83.83
74958;BME280;63741;42.624;26.276;2023-12-20T04:44:35;99902.66;;;2.86;85.35
74958;BME280;63741;42.624;26.276;2023-12-20T04:47:02;99909.41;;;2.91;84.34
74958;BME280;63741;42.624;26.276;2023-12-20T04:49:29;99906.41;;;3.00;84.70
74958;BME280;63741;42.624;26.276;2023-12-20T04:51:57;99902.78;;;2.83;84.40
74958;BME280;63741;42.624;26.276;2023-12-20T04:54:24;99897.34;;;2.67;85.19
74958;BME280;63741;42.624;26.276;2023-12-20T04:56:51;99895.47;;;2.70;85.89
74958;BME280;63741;42.624;26.276;2023-12-20T04:59:18;99889.84;;;2.79;85.50
74958;BME280;63741;42.624;26.276;2023-12-20T05:01:44;99902.53;;;2.68;85.88
74958;BME280;63741;42.624;26.276;2023-12-20T05:04:12;99900.59;;;2.51;86.92
74958;BME280;63741;42.624;26.276;2023-12-20T05:06:39;99894.50;;;2.73;86.79
74958;BME280;63741;42.624;26.276;2023-12-20T05:09:06;99893.28;;;2.82;87.54
74958;BME280;63741;42.624;26.276;2023-12-20T05:11:33;99895.53;;;2.89;87.21
74958;BME280;63741;42.624;26.276;2023-12-20T05:14:00;99902.78;;;2.83;87.96
74958;BME280;63741;42.624;26.276;2023-12-20T05:16:27;99892.78;;;2.72;88.52
74958;BME280;63741;42.624;26.276;2023-12-20T05:18:54;99890.72;;;2.58;88.07
74958;BME280;63741;42.624;26.276;2023-12-20T05:21:21;99894.38;;;2.54;88.41
74958;BME280;63741;42.624;26.276;2023-12-20T05:23:48;99896.38;;;2.90;88.14
74958;BME280;63741;42.624;26.276;2023-12-20T05:26:15;99886.84;;;2.89;88.06
74958;BME280;63741;42.624;26.276;2023-12-20T05:28:42;99892.34;;;2.83;87.74
74958;BME280;63741;42.624;26.276;2023-12-20T05:31:09;99893.78;;;2.90;87.26
74958;BME280;63741;42.624;26.276;2023-12-20T05:33:36;99896.47;;;2.88;87.24
74958;BME280;63741;42.624;26.276;2023-12-20T05:36:03;99880.53;;;2.74;87.59
74958;BME280;63741;42.624;26.276;2023-12-20T05:38:30;99885.56;;;2.78;87.54
74958;BME280;63741;42.624;26.276;2023-12-20T05:40:57;99875.88;;;2.81;88.11
74958;BME280;63741;42.624;26.276;2023-12-20T05:43:24;99884.25;;;2.89;86.46
74958;BME280;63741;42.624;26.276;2023-12-20T05:45:51;99876.53;;;2.65;87.76
74958;BME280;63741;42.624;26.276;2023-12-20T05:48:18;99872.41;;;2.80;87.73
74958;BME280;63741;42.624;26.276;2023-12-20T05:50:45;99886.31;;;2.81;87.25
74958;BME280;63741;42.624;26.276;2023-12-20T05:53:12;99875.88;;;2.81;86.94
74958;BME280;63741;42.624;26.276;2023-12-20T05:55:39;99873.41;;;2.77;87.40
74958;BME280;63741;42.624;26.276;2023-12-20T05:58:07;99872.63;;;2.53;88.86
74958;BME280;63741;42.624;26.276;2023-12-20T06:00:33;99876.72;;;2.81;87.78
74958;BME280;63741;42.624;26.276;2023-12-20T06:03:00;99865.16;;;3.07;86.77
74958;BME280;63741;42.624;26.276;2023-12-20T06:05:27;99862.75;;;3.62;84.22
74958;BME280;63741;42.624;26.276;2023-12-20T06:07:54;99856.97;;;4.29;81.68
74958;BME280;63741;42.624;26.276;2023-12-20T06:10:23;99865.66;;;4.84;79.03
74958;BME280;63741;42.624;26.276;2023-12-20T06:12:50;99864.16;;;5.63;74.54
74958;BME280;63741;42.624;26.276;2023-12-20T06:15:18;99864.56;;;5.71;74.10
74958;BME280;63741;42.624;26.276;2023-12-20T06:17:45;99859.34;;;7.25;72.44
74958;BME280;63741;42.624;26.276;2023-12-20T06:20:15;99856.31;;;7.88;65.91
74958;BME280;63741;42.624;26.276;2023-12-20T06:22:42;99857.13;;;6.89;68.00
74958;BME280;63741;42.624;26.276;2023-12-20T06:25:09;99859.78;;;7.03;68.16
74958;BME280;63741;42.624;26.276;2023-12-20T06:27:36;99850.09;;;7.03;68.41
74958;BME280;63741;42.624;26.276;2023-12-20T06:30:03;99853.22;;;6.66;69.24
74958;BME280;63741;42.624;26.276;2023-12-20T06:32:30;99864.91;;;6.90;68.98
74958;BME280;63741;42.624;26.276;2023-12-20T06:34:57;99855.00;;;7.09;68.77
74958;BME280;63741;42.624;26.276;2023-12-20T06:37:24;99841.63;;;6.84;69.72
74958;BME280;63741;42.624;26.276;2023-12-20T06:39:51;99845.97;;;6.99;68.67
74958;BME280;63741;42.624;26.276;2023-12-20T06:42:18;99834.00;;;6.49;71.36
74958;BME280;63741;42.624;26.276;2023-12-20T06:44:45;99844.97;;;6.26;71.20
74958;BME280;63741;42.624;26.276;2023-12-20T06:47:12;99836.41;;;6.06;72.12
74958;BME280;63741;42.624;26.276;2023-12-20T06:49:40;99841.19;;;6.62;71.17
74958;BME280;63741;42.624;26.276;2023-12-20T06:52:07;99832.09;;;6.21;71.07
74958;BME280;63741;42.624;26.276;2023-12-20T06:54:34;99843.59;;;6.95;70.69
74958;BME280;63741;42.624;26.276;2023-12-20T06:57:02;99828.53;;;7.27;68.41
74958;BME280;63741;42.624;26.276;2023-12-20T06:59:30;99831.44;;;7.65;70.23
74958;BME280;63741;42.624;26.276;2023-12-20T07:01:57;99828.63;;;7.68;68.95
74958;BME280;63741;42.624;26.276;2023-12-20T07:04:24;99828.59;;;7.82;68.91
74958;BME280;63741;42.624;26.276;2023-12-20T07:06:51;99829.41;;;8.24;67.18
74958;BME280;63741;42.624;26.276;2023-12-20T07:09:20;99827.25;;;8.58;67.22
74958;BME280;63741;42.624;26.276;2023-12-20T07:11:47;99808.41;;;8.10;67.52
74958;BME280;63741;42.624;26.276;2023-12-20T07:14:14;99812.66;;;8.40;67.69
74958;BME280;63741;42.624;26.276;2023-12-20T07:16:41;99810.78;;;8.54;67.12
74958;BME280;63741;42.624;26.276;2023-12-20T07:19:08;99813.38;;;8.42;65.86
74958;BME280;63741;42.624;26.276;2023-12-20T07:21:35;99814.22;;;8.82;66.24
74958;BME280;63741;42.624;26.276;2023-12-20T07:24:02;99818.97;;;8.90;66.47
74958;BME280;63741;42.624;26.276;2023-12-20T07:26:29;99821.31;;;9.07;65.75
74958;BME280;63741;42.624;26.276;2023-12-20T07:28:56;99819.09;;;9.01;65.72
74958;BME280;63741;42.624;26.276;2023-12-20T07:31:23;99811.22;;;8.61;66.61
74958;BME280;63741;42.624;26.276;2023-12-20T07:33:51;99814.09;;;8.83;66.01
74958;BME280;63741;42.624;26.276;2023-12-20T07:36:19;99814.03;;;9.10;66.03
74958;BME280;63741;42.624;26.276;2023-12-20T07:38:46;99805.06;;;9.26;65.78
74958;BME280;63741;42.624;26.276;2023-12-20T07:41:13;99806.63;;;9.41;65.21
74958;BME280;63741;42.624;26.276;2023-12-20T07:43:42;99815.94;;;9.47;64.03
74958;BME280;63741;42.624;26.276;2023-12-20T07:46:09;99813.22;;;9.72;64.32
74958;BME280;63741;42.624;26.276;2023-12-20T07:48:36;99812.06;;;9.63;64.25
74958;BME280;63741;42.624;26.276;2023-12-20T07:51:04;99808.44;;;9.77;63.54
74958;BME280;63741;42.624;26.276;2023-12-20T07:53:32;99810.38;;;9.75;63.52
74958;BME280;63741;42.624;26.276;2023-12-20T07:55:59;99806.72;;;9.65;65.46
74958;BME280;63741;42.624;26.276;2023-12-20T07:58:26;99808.34;;;9.92;63.91
74958;BME280;63741;42.624;26.276;2023-12-20T08:01:11;99805.47;;;10.19;63.48
74958;BME280;63741;42.624;26.276;2023-12-20T08:03:38;99810.03;;;10.17;63.08
74958;BME280;63741;42.624;26.276;2023-12-20T08:06:05;99799.78;;;10.12;63.25
74958;BME280;63741;42.624;26.276;2023-12-20T08:08:32;99799.09;;;10.34;63.08
74958;BME280;63741;42.624;26.276;2023-12-20T08:10:59;99804.25;;;10.35;62.52
74958;BME280;63741;42.624;26.276;2023-12-20T08:13:26;99806.84;;;10.24;62.85
74958;BME280;63741;42.624;26.276;2023-12-20T08:15:54;99800.72;;;10.48;63.82
74958;BME280;63741;42.624;26.276;2023-12-20T08:18:22;99801.88;;;10.44;62.25
74958;BME280;63741;42.624;26.276;2023-12-20T08:20:50;99796.00;;;10.75;62.17
74958;BME280;63741;42.624;26.276;2023-12-20T08:23:19;99794.88;;;11.13;60.19
74958;BME280;63741;42.624;26.276;2023-12-20T08:25:50;99790.19;;;10.70;60.99
74958;BME280;63741;42.624;26.276;2023-12-20T08:28:17;99781.56;;;10.79;62.10
74958;BME280;63741;42.624;26.276;2023-12-20T08:30:44;99777.78;;;10.95;61.45
74958;BME280;63741;42.624;26.276;2023-12-20T08:33:11;99774.06;;;11.31;60.53
74958;BME280;63741;42.624;26.276;2023-12-20T08:35:40;99772.72;;;11.14;60.54
74958;BME280;63741;42.624;26.276;2023-12-20T08:38:07;99766.22;;;11.18;61.17
74958;BME280;63741;42.624;26.276;2023-12-20T08:40:34;99762.16;;;11.25;60.29
74958;BME280;63741;42.624;26.276;2023-12-20T08:43:01;99755.84;;;11.60;60.06
74958;BME280;63741;42.624;26.276;2023-12-20T08:45:28;99753.47;;;11.57;59.82
74958;BME280;63741;42.624;26.276;2023-12-20T08:47:55;99738.50;;;11.67;58.84
74958;BME280;63741;42.624;26.276;2023-12-20T08:50:26;99725.91;;;11.48;59.56
74958;BME280;63741;42.624;26.276;2023-12-20T08:52:53;99717.63;;;11.96;58.22
74958;BME280;63741;42.624;26.276;2023-12-20T08:55:20;99719.09;;;11.89;58.78
74958;BME280;63741;42.624;26.276;2023-12-20T08:57:47;99715.53;;;12.32;57.04
74958;BME280;63741;42.624;26.276;2023-12-20T09:00:15;99712.13;;;12.83;57.29
74958;BME280;63741;42.624;26.276;2023-12-20T09:02:42;99703.88;;;12.23;58.23
74958;BME280;63741;42.624;26.276;2023-12-20T09:05:09;99695.28;;;12.31;59.09
74958;BME280;63741;42.624;26.276;2023-12-20T09:07:36;99695.69;;;12.47;57.89
74958;BME280;63741;42.624;26.276;2023-12-20T09:10:03;99708.03;;;12.58;57.69
74958;BME280;63741;42.624;26.276;2023-12-20T09:12:30;99692.88;;;12.90;56.95
74958;BME280;63741;42.624;26.276;2023-12-20T09:14:57;99692.56;;;13.14;56.87
74958;BME280;63741;42.624;26.276;2023-12-20T09:17:24;99693.22;;;12.76;57.59
74958;BME280;63741;42.624;26.276;2023-12-20T09:19:54;99679.94;;;13.07;57.00
74958;BME280;63741;42.624;26.276;2023-12-20T09:22:21;99667.22;;;13.31;56.88
74958;BME280;63741;42.624;26.276;2023-12-20T09:24:48;99659.59;;;13.57;55.29
74958;BME280;63741;42.624;26.276;2023-12-20T09:27:15;99656.50;;;13.62;55.57
74958;BME280;63741;42.624;26.276;2023-12-20T09:29:42;99648.53;;;13.62;56.01
74958;BME280;63741;42.624;26.276;2023-12-20T09:32:09;99644.75;;;13.55;56.73
74958;BME280;63741;42.624;26.276;2023-12-20T09:34:36;99639.88;;;13.99;55.32
74958;BME280;63741;42.624;26.276;2023-12-20T09:37:04;99641.53;;;14.19;54.77
74958;BME280;63741;42.624;26.276;2023-12-20T09:39:34;99640.13;;;14.25;54.53
74958;BME280;63741;42.624;26.276;2023-12-20T09:42:03;99635.06;;;14.31;54.09
74958;BME280;63741;42.624;26.276;2023-12-20T09:44:30;99624.97;;;14.54;54.87
74958;BME280;63741;42.624;26.276;2023-12-20T09:47:02;99628.03;;;14.59;53.77
74958;BME280;63741;42.624;26.276;2023-12-20T09:49:30;99618.75;;;14.63;53.49
74958;BME280;63741;42.624;26.276;2023-12-20T09:51:59;99619.09;;;14.31;52.75
74958;BME280;63741;42.624;26.276;2023-12-20T09:54:28;99610.41;;;14.39;53.62
74958;BME280;63741;42.624;26.276;2023-12-20T09:56:55;99603.63;;;14.64;53.32
74958;BME280;63741;42.624;26.276;2023-12-20T09:59:22;99605.03;;;14.68;53.96
74958;BME280;63741;42.624;26.276;2023-12-20T10:01:50;99598.97;;;14.76;52.94
74958;BME280;63741;42.624;26.276;2023-12-20T10:04:23;99594.00;;;14.90;52.85
74958;BME280;63741;42.624;26.276;2023-12-20T10:06:56;99592.59;;;14.86;53.83
74958;BME280;63741;42.624;26.276;2023-12-20T10:09:24;99594.88;;;15.09;53.28
74958;BME280;63741;42.624;26.276;2023-12-20T10:11:54;99593.38;;;14.79;54.43
74958;BME280;63741;42.624;26.276;2023-12-20T10:14:21;99593.03;;;14.82;53.96
74958;BME280;63741;42.624;26.276;2023-12-20T10:16:50;99580.50;;;15.02;53.22
74958;BME280;63741;42.624;26.276;2023-12-20T10:19:17;99573.06;;;15.23;54.30
74958;BME280;63741;42.624;26.276;2023-12-20T10:21:45;99562.44;;;14.96;54.61
74958;BME280;63741;42.624;26.276;2023-12-20T10:24:17;99570.72;;;15.38;53.41
74958;BME280;63741;42.624;26.276;2023-12-20T10:26:44;99561.50;;;15.32;51.55
74958;BME280;63741;42.624;26.276;2023-12-20T10:29:11;99551.84;;;15.49;51.30
74958;BME280;63741;42.624;26.276;2023-12-20T10:31:38;99551.00;;;15.49;50.53
74958;BME280;63741;42.624;26.276;2023-12-20T10:34:05;99549.84;;;15.33;50.91
74958;BME280;63741;42.624;26.276;2023-12-20T10:36:33;99547.09;;;15.25;49.90
74958;BME280;63741;42.624;26.276;2023-12-20T10:39:00;99536.53;;;15.15;50.60
74958;BME280;63741;42.624;26.276;2023-12-20T10:41:31;99538.56;;;15.22;49.70
74958;BME280;63741;42.624;26.276;2023-12-20T10:44:03;99534.69;;;15.16;49.43
74958;BME280;63741;42.624;26.276;2023-12-20T10:46:34;99528.44;;;15.25;49.53
74958;BME280;63741;42.624;26.276;2023-12-20T10:49:05;99520.97;;;14.93;50.79
74958;BME280;63741;42.624;26.276;2023-12-20T10:51:34;99519.03;;;14.85;50.07
74958;BME280;63741;42.624;26.276;2023-12-20T10:54:01;99517.38;;;14.57;50.23
74958;BME280;63741;42.624;26.276;2023-12-20T10:56:32;99509.25;;;15.04;49.83
74958;BME280;63741;42.624;26.276;2023-12-20T10:59:02;99512.38;;;15.35;49.32
74958;BME280;63741;42.624;26.276;2023-12-20T11:01:31;99508.13;;;15.24;48.41
74958;BME280;63741;42.624;26.276;2023-12-20T11:03:59;99502.97;;;15.23;47.94
74958;BME280;63741;42.624;26.276;2023-12-20T11:06:36;99506.97;;;15.27;48.25
74958;BME280;63741;42.624;26.276;2023-12-20T11:09:22;99500.56;;;15.91;47.34
74958;BME280;63741;42.624;26.276;2023-12-20T11:14:46;99498.47;;;16.37;46.15
74958;BME280;63741;42.624;26.276;2023-12-20T11:17:14;99492.38;;;16.53;46.61
74958;BME280;63741;42.624;26.276;2023-12-20T11:22:25;99482.00;;;16.15;46.13
74958;BME280;63741;42.624;26.276;2023-12-20T11:24:53;99487.28;;;15.99;46.71
74958;BME280;63741;42.624;26.276;2023-12-20T11:27:20;99477.25;;;15.75;47.26
74958;BME280;63741;42.624;26.276;2023-12-20T11:29:58;99474.88;;;15.10;47.98
74958;BME280;63741;42.624;26.276;2023-12-20T11:35:00;99458.34;;;15.25;47.88
74958;BME280;63741;42.624;26.276;2023-12-20T11:37:46;99449.50;;;15.42;48.75
74958;BME280;63741;42.624;26.276;2023-12-20T11:40:17;99451.94;;;15.17;47.38
74958;BME280;63741;42.624;26.276;2023-12-20T11:42:48;99448.75;;;14.96;48.70
74958;BME280;63741;42.624;26.276;2023-12-20T11:45:21;99443.34;;;15.06;47.82
74958;BME280;63741;42.624;26.276;2023-12-20T11:47:51;99428.56;;;15.11;47.77
74958;BME280;63741;42.624;26.276;2023-12-20T11:50:22;99421.00;;;15.42;47.59
74958;BME280;63741;42.624;26.276;2023-12-20T11:52:52;99430.97;;;15.58;47.64
74958;BME280;63741;42.624;26.276;2023-12-20T11:55:19;99416.97;;;15.82;46.28
74958;BME280;63741;42.624;26.276;2023-12-20T11:57:47;99412.13;;;15.78;46.77
74958;BME280;63741;42.624;26.276;2023-12-20T12:00:15;99408.63;;;15.77;45.82
74958;BME280;63741;42.624;26.276;2023-12-20T12:02:42;99398.97;;;15.58;45.66
74958;BME280;63741;42.624;26.276;2023-12-20T12:05:13;99396.31;;;15.58;46.03
74958;BME280;63741;42.624;26.276;2023-12-20T12:07:40;99392.66;;;15.85;45.65
74958;BME280;63741;42.624;26.276;2023-12-20T12:10:07;99389.97;;;15.59;46.96
74958;BME280;63741;42.624;26.276;2023-12-20T12:12:34;99379.81;;;15.37;48.19
74958;BME280;63741;42.624;26.276;2023-12-20T12:15:02;99376.19;;;15.98;46.91
74958;BME280;63741;42.624;26.276;2023-12-20T12:17:29;99378.72;;;16.00;46.50
74958;BME280;63741;42.624;26.276;2023-12-20T12:20:03;99371.81;;;15.89;46.87
74958;BME280;63741;42.624;26.276;2023-12-20T12:22:31;99370.72;;;16.00;47.26
74958;BME280;63741;42.624;26.276;2023-12-20T12:25:09;99374.78;;;16.12;46.57
74958;BME280;63741;42.624;26.276;2023-12-20T12:27:38;99339.66;;;15.90;46.57
74958;BME280;63741;42.624;26.276;2023-12-20T12:30:06;99361.38;;;15.96;45.89
74958;BME280;63741;42.624;26.276;2023-12-20T12:32:36;99353.31;;;15.87;45.76
74958;BME280;63741;42.624;26.276;2023-12-20T12:35:04;99354.88;;;16.06;45.80
74958;BME280;63741;42.624;26.276;2023-12-20T12:37:38;99357.81;;;16.21;46.36
74958;BME280;63741;42.624;26.276;2023-12-20T12:40:09;99330.09;;;15.80;48.10
74958;BME280;63741;42.624;26.276;2023-12-20T12:42:41;99349.44;;;16.24;46.80
74958;BME280;63741;42.624;26.276;2023-12-20T12:45:08;99347.47;;;16.26;46.95
74958;BME280;63741;42.624;26.276;2023-12-20T12:47:36;99335.69;;;15.95;46.05
74958;BME280;63741;42.624;26.276;2023-12-20T12:50:03;99334.38;;;15.99;46.80
74958;BME280;63741;42.624;26.276;2023-12-20T12:52:31;99323.59;;;16.16;46.38
74958;BME280;63741;42.624;26.276;2023-12-20T12:54:58;99328.34;;;16.72;44.12
74958;BME280;63741;42.624;26.276;2023-12-20T12:57:25;99333.19;;;18.05;41.60
74958;BME280;63741;42.624;26.276;2023-12-20T12:59:53;99332.63;;;21.78;36.11
74958;BME280;63741;42.624;26.276;2023-12-20T13:02:20;99331.44;;;28.74;25.21
74958;BME280;63741;42.624;26.276;2023-12-20T13:04:47;99348.13;;;31.53;20.31
74958;BME280;63741;42.624;26.276;2023-12-20T13:07:14;99344.91;;;32.13;19.54